createdAt,value
2023-02-11T00:00:12.441Z,6.82
2023-02-11T00:01:12.412Z,6.79
2023-02-11T00:02:12.589Z,6.69
2023-02-11T00:03:12.541Z,6.74
2023-02-11T00:04:12.298Z,6.75
2023-02-11T00:05:12.267Z,6.74
2023-02-11T00:06:12.261Z,6.77
2023-02-11T00:07:12.204Z,6.66
2023-02-11T00:08:12.188Z,6.7
2023-02-11T00:09:12.161Z,6.7
2023-02-11T00:10:12.151Z,6.75
2023-02-11T00:11:12.110Z,6.72
2023-02-11T00:12:12.035Z,6.75
2023-02-11T00:13:12.020Z,6.74
2023-02-11T00:14:11.968Z,6.78
2023-02-11T00:15:11.936Z,6.77
2023-02-11T00:16:12.123Z,6.77
2023-02-11T00:17:11.874Z,6.75
2023-02-11T00:18:11.856Z,6.78
2023-02-11T00:19:11.849Z,6.79
2023-02-11T00:20:13.062Z,6.74
2023-02-11T00:21:11.736Z,6.75
2023-02-11T00:22:11.741Z,6.82
2023-02-11T00:23:11.678Z,6.77
2023-02-11T00:24:11.646Z,6.74
2023-02-11T00:25:11.613Z,6.77
2023-02-11T00:26:11.337Z,6.79
2023-02-11T00:27:11.571Z,6.72
2023-02-11T00:28:11.699Z,6.6
2023-02-11T00:29:11.491Z,6.66
2023-02-11T00:30:11.441Z,6.67
2023-02-11T00:31:11.900Z,6.66
2023-02-11T00:32:11.435Z,6.69
2023-02-11T00:33:11.359Z,6.72
2023-02-11T00:34:11.307Z,6.69
2023-02-11T00:35:11.297Z,6.69
2023-02-11T00:36:11.305Z,6.7
2023-02-11T00:37:11.204Z,6.67
2023-02-11T00:38:11.209Z,6.63
2023-02-11T00:39:11.136Z,6.67
2023-02-11T00:40:11.710Z,6.78
2023-02-11T00:41:11.072Z,6.69
2023-02-11T00:42:11.057Z,6.78
2023-02-11T00:43:11.033Z,6.78
2023-02-11T00:44:10.991Z,6.69
2023-02-11T00:45:10.941Z,6.82
2023-02-11T00:46:11.274Z,6.75
2023-02-11T00:47:10.870Z,6.74
2023-02-11T00:48:10.876Z,6.7
2023-02-11T00:49:10.812Z,6.74
2023-02-11T00:50:10.770Z,6.79
2023-02-11T00:51:10.774Z,6.82
2023-02-11T00:52:10.734Z,6.77
2023-02-11T00:53:10.680Z,6.79
2023-02-11T00:54:10.711Z,6.78
2023-02-11T00:55:10.612Z,6.78
2023-02-11T00:56:10.606Z,6.77
2023-02-11T00:57:10.536Z,6.77
2023-02-11T00:58:10.507Z,6.85
2023-02-11T00:59:10.518Z,6.84
2023-02-11T01:00:10.452Z,6.82
2023-02-11T01:01:10.633Z,6.84
2023-02-11T01:02:10.379Z,6.82
2023-02-11T01:03:10.338Z,6.81
2023-02-11T01:04:10.319Z,6.77
2023-02-11T01:05:10.425Z,6.81
2023-02-11T01:06:10.248Z,6.87
2023-02-11T01:07:10.287Z,6.84
2023-02-11T01:08:10.180Z,6.87
2023-02-11T01:09:10.166Z,6.82
2023-02-11T01:10:10.184Z,6.75
2023-02-11T01:11:10.084Z,6.88
2023-02-11T01:12:10.052Z,6.79
2023-02-11T01:13:10.018Z,6.87
2023-02-11T01:14:10.001Z,6.82
2023-02-11T01:15:09.978Z,6.81
2023-02-11T01:16:10.146Z,6.85
2023-02-11T01:17:09.885Z,6.82
2023-02-11T01:18:09.857Z,6.82
2023-02-11T01:19:09.834Z,6.82
2023-02-11T01:20:09.798Z,6.81
2023-02-11T01:21:09.760Z,6.88
2023-02-11T01:22:09.724Z,6.93
2023-02-11T01:23:09.723Z,6.88
2023-02-11T01:24:09.667Z,6.81
2023-02-11T01:25:09.632Z,6.85
2023-02-11T01:26:09.625Z,6.93
2023-02-11T01:27:09.578Z,6.82
2023-02-11T01:28:09.710Z,6.87
2023-02-11T01:29:09.497Z,6.92
2023-02-11T01:30:09.467Z,6.88
2023-02-11T01:31:09.764Z,6.85
2023-02-11T01:32:09.621Z,6.95
2023-02-11T01:33:09.396Z,6.89
2023-02-11T01:34:09.334Z,6.93
2023-02-11T01:35:09.345Z,6.87
2023-02-11T01:36:09.285Z,6.89
2023-02-11T01:37:09.251Z,6.81
2023-02-11T01:38:09.218Z,6.95
2023-02-11T01:39:09.199Z,6.96
2023-02-11T01:40:09.218Z,6.93
2023-02-11T01:41:09.125Z,6.89
2023-02-11T01:42:09.107Z,6.96
2023-02-11T01:43:09.085Z,6.89
2023-02-11T01:44:09.047Z,6.96
2023-02-11T01:45:08.742Z,6.96
2023-02-11T01:46:09.133Z,6.95
2023-02-11T01:47:08.976Z,6.96
2023-02-11T01:48:08.892Z,6.87
2023-02-11T01:49:09.200Z,6.97
2023-02-11T01:50:08.837Z,7.07
2023-02-11T01:51:08.785Z,6.95
2023-02-11T01:52:08.745Z,7.05
2023-02-11T01:53:08.709Z,6.95
2023-02-11T01:54:08.680Z,6.92
2023-02-11T01:55:08.669Z,6.95
2023-02-11T01:56:08.603Z,6.87
2023-02-11T01:57:08.602Z,6.93
2023-02-11T01:58:08.578Z,6.93
2023-02-11T01:59:08.533Z,6.93
2023-02-11T02:00:08.500Z,6.95
2023-02-11T02:01:08.450Z,6.88
2023-02-11T02:02:08.432Z,6.97
2023-02-11T02:03:08.432Z,6.92
2023-02-11T02:04:08.538Z,6.89
2023-02-11T02:05:08.488Z,6.89
2023-02-11T02:06:08.286Z,6.95
2023-02-11T02:07:08.251Z,6.92
2023-02-11T02:08:08.210Z,6.93
2023-02-11T02:09:08.237Z,6.95
2023-02-11T02:10:08.157Z,6.89
2023-02-11T02:11:08.291Z,6.95
2023-02-11T02:12:08.089Z,6.87
2023-02-11T02:13:08.088Z,6.95
2023-02-11T02:14:08.059Z,6.93
2023-02-11T02:15:07.991Z,6.95
2023-02-11T02:16:10.978Z,6.88
2023-02-11T02:17:07.930Z,6.87
2023-02-11T02:18:07.904Z,6.95
2023-02-11T02:19:07.932Z,6.92
2023-02-11T02:20:07.817Z,6.95
2023-02-11T02:21:07.796Z,6.96
2023-02-11T02:22:07.780Z,6.95
2023-02-11T02:23:07.731Z,6.97
2023-02-11T02:24:07.697Z,6.95
2023-02-11T02:25:07.649Z,6.92
2023-02-11T02:26:07.632Z,6.87
2023-02-11T02:27:07.641Z,6.96
2023-02-11T02:28:07.699Z,6.96
2023-02-11T02:29:07.520Z,6.87
2023-02-11T02:30:07.521Z,6.93
2023-02-11T02:31:07.825Z,6.92
2023-02-11T02:32:07.423Z,6.93
2023-02-11T02:33:26.322Z,6.89
2023-02-11T02:34:07.363Z,6.95
2023-02-11T02:35:07.390Z,6.85
2023-02-11T02:36:07.297Z,6.84
2023-02-11T02:37:07.277Z,6.87
2023-02-11T02:38:07.234Z,6.87
2023-02-11T02:39:07.188Z,6.87
2023-02-11T02:40:07.213Z,6.85
2023-02-11T02:41:07.224Z,6.85
2023-02-11T02:42:07.099Z,6.93
2023-02-11T02:43:07.122Z,6.88
2023-02-11T02:44:07.038Z,6.89
2023-02-11T02:45:07.006Z,6.84
2023-02-11T02:46:06.988Z,6.85
2023-02-11T02:47:07.207Z,6.87
2023-02-11T02:48:06.909Z,6.92
2023-02-11T02:49:06.625Z,6.85
2023-02-11T02:50:06.833Z,6.85
2023-02-11T02:51:06.825Z,6.89
2023-02-11T02:52:06.778Z,6.85
2023-02-11T02:53:06.951Z,6.84
2023-02-11T02:54:06.751Z,6.88
2023-02-11T02:55:06.677Z,6.88
2023-02-11T02:56:06.667Z,6.84
2023-02-11T02:57:06.603Z,6.88
2023-02-11T02:58:06.570Z,6.92
2023-02-11T02:59:06.758Z,6.93
2023-02-11T03:00:06.499Z,6.84
2023-02-11T03:01:06.667Z,6.85
2023-02-11T03:02:06.478Z,6.85
2023-02-11T03:03:06.410Z,6.79
2023-02-11T03:04:06.731Z,6.84
2023-02-11T03:05:06.370Z,6.84
2023-02-11T03:06:06.315Z,6.82
2023-02-11T03:07:06.334Z,6.89
2023-02-11T03:08:06.276Z,6.84
2023-02-11T03:09:06.252Z,6.85
2023-02-11T03:10:06.490Z,6.85
2023-02-11T03:11:06.150Z,6.81
2023-02-11T03:12:06.135Z,6.85
2023-02-11T03:13:06.087Z,6.81
2023-02-11T03:14:06.058Z,6.78
2023-02-11T03:15:06.042Z,6.81
2023-02-11T03:16:06.203Z,6.87
2023-02-11T03:17:05.965Z,6.77
2023-02-11T03:18:05.944Z,6.85
2023-02-11T03:19:05.887Z,6.79
2023-02-11T03:20:05.858Z,6.78
2023-02-11T03:21:05.836Z,6.78
2023-02-11T03:22:05.870Z,6.84
2023-02-11T03:23:05.780Z,6.78
2023-02-11T03:24:05.515Z,6.84
2023-02-11T03:25:05.697Z,6.78
2023-02-11T03:26:05.648Z,6.81
2023-02-11T03:27:05.728Z,6.79
2023-02-11T03:28:05.842Z,6.82
2023-02-11T03:29:05.559Z,6.85
2023-02-11T03:30:05.534Z,6.75
2023-02-11T03:31:05.872Z,6.78
2023-02-11T03:32:05.687Z,6.77
2023-02-11T03:33:05.442Z,6.78
2023-02-11T03:34:05.433Z,6.82
2023-02-11T03:35:05.367Z,6.82
2023-02-11T03:36:05.462Z,6.69
2023-02-11T03:37:05.288Z,6.84
2023-02-11T03:38:05.262Z,6.75
2023-02-11T03:39:05.317Z,6.72
2023-02-11T03:40:05.203Z,6.7
2023-02-11T03:41:05.174Z,6.79
2023-02-11T03:42:05.144Z,6.72
2023-02-11T03:43:05.092Z,6.72
2023-02-11T03:44:05.093Z,6.72
2023-02-11T03:45:05.097Z,6.7
2023-02-11T03:46:05.278Z,6.75
2023-02-11T03:47:04.986Z,6.72
2023-02-11T03:48:04.936Z,6.78
2023-02-11T03:49:04.903Z,6.74
2023-02-11T03:50:04.882Z,6.81
2023-02-11T03:51:04.856Z,6.67
2023-02-11T03:52:04.826Z,6.75
2023-02-11T03:53:04.768Z,6.75
2023-02-11T03:54:04.746Z,6.67
2023-02-11T03:55:04.720Z,6.78
2023-02-11T03:56:04.708Z,6.72
2023-02-11T03:57:04.721Z,6.72
2023-02-11T03:58:04.613Z,6.74
2023-02-11T03:59:04.577Z,6.74
2023-02-11T04:00:04.560Z,6.69
2023-02-11T04:01:04.753Z,6.66
2023-02-11T04:02:04.492Z,6.74
2023-02-11T04:03:04.595Z,6.74
2023-02-11T04:04:04.411Z,6.7
2023-02-11T04:05:04.390Z,6.62
2023-02-11T04:06:04.384Z,6.64
2023-02-11T04:07:04.333Z,6.67
2023-02-11T04:08:04.282Z,6.72
2023-02-11T04:09:04.236Z,6.66
2023-02-11T04:10:04.212Z,6.63
2023-02-11T04:11:04.240Z,6.69
2023-02-11T04:12:04.158Z,6.63
2023-02-11T04:13:04.123Z,6.69
2023-02-11T04:14:04.075Z,6.69
2023-02-11T04:15:04.064Z,6.6
2023-02-11T04:16:04.261Z,6.54
2023-02-11T04:17:03.984Z,6.56
2023-02-11T04:18:03.949Z,6.62
2023-02-11T04:19:03.941Z,6.48
2023-02-11T04:20:04.025Z,6.54
2023-02-11T04:21:03.904Z,6.46
2023-02-11T04:22:03.608Z,6.42
2023-02-11T04:23:03.785Z,6.48
2023-02-11T04:24:03.740Z,6.41
2023-02-11T04:25:03.716Z,6.46
2023-02-11T04:26:03.762Z,6.39
2023-02-11T04:27:03.686Z,6.39
2023-02-11T04:28:03.802Z,6.28
2023-02-11T04:29:03.594Z,6.31
2023-02-11T04:30:03.583Z,6.35
2023-02-11T04:31:03.799Z,6.35
2023-02-11T04:32:03.733Z,6.27
2023-02-11T04:33:03.492Z,6.17
2023-02-11T04:34:03.423Z,6.2
2023-02-11T04:35:03.412Z,6.19
2023-02-11T04:36:03.383Z,6.14
2023-02-11T04:37:03.313Z,6.17
2023-02-11T04:38:03.369Z,6.08
2023-02-11T04:39:03.253Z,6.14
2023-02-11T04:40:03.231Z,6.11
2023-02-11T04:41:03.181Z,6.12
2023-02-11T04:42:03.210Z,6.12
2023-02-11T04:43:03.144Z,6.07
2023-02-11T04:44:03.080Z,6.11
2023-02-11T04:45:03.061Z,6.09
2023-02-11T04:46:03.250Z,6.17
2023-02-11T04:47:02.742Z,6.09
2023-02-11T04:48:02.723Z,6.14
2023-02-11T04:49:02.927Z,6.17
2023-02-11T04:50:02.881Z,6.09
2023-02-11T04:51:02.871Z,6.14
2023-02-11T04:52:02.818Z,6.08
2023-02-11T04:53:02.834Z,6.02
2023-02-11T04:54:02.797Z,5.99
2023-02-11T04:55:02.717Z,6.08
2023-02-11T04:56:02.691Z,6.04
2023-02-11T04:57:02.675Z,6.05
2023-02-11T04:58:02.612Z,6.05
2023-02-11T04:59:02.607Z,6.11
2023-02-11T05:00:02.556Z,6.05
2023-02-11T05:01:02.613Z,6.09
2023-02-11T05:02:02.506Z,6.12
2023-02-11T05:03:02.486Z,6.05
2023-02-11T05:04:02.596Z,6.08
2023-02-11T05:05:02.378Z,6.12
2023-02-11T05:06:02.482Z,6.08
2023-02-11T05:07:03.511Z,6.16
2023-02-11T05:08:02.291Z,6.14
2023-02-11T05:09:02.256Z,6.09
2023-02-11T05:10:02.267Z,6.07
2023-02-11T05:11:02.258Z,6.05
2023-02-11T05:12:02.179Z,6.05
2023-02-11T05:13:02.151Z,6.05
2023-02-11T05:14:02.079Z,6.04
2023-02-11T05:15:02.066Z,6.04
2023-02-11T05:16:02.036Z,6.07
2023-02-11T05:17:02.169Z,6.05
2023-02-11T05:18:01.953Z,6.09
2023-02-11T05:19:01.943Z,6.11
2023-02-11T05:20:03.057Z,6.07
2023-02-11T05:21:01.850Z,6.09
2023-02-11T05:22:08.067Z,6.09
2023-02-11T05:23:01.795Z,6.09
2023-02-11T05:24:01.619Z,6.05
2023-02-11T05:25:01.718Z,6.04
2023-02-11T05:26:01.698Z,6.01
2023-02-11T05:27:01.656Z,6.04
2023-02-11T05:28:01.705Z,6.05
2023-02-11T05:29:01.591Z,6.08
2023-02-11T05:30:01.566Z,6.04
2023-02-11T05:31:01.763Z,6.02
2023-02-11T05:32:01.478Z,6.04
2023-02-11T05:33:01.452Z,6.08
2023-02-11T05:34:01.424Z,6.08
2023-02-11T05:35:01.431Z,6.11
2023-02-11T05:36:01.347Z,6.09
2023-02-11T05:37:01.391Z,6.05
2023-02-11T05:38:01.311Z,6.08
2023-02-11T05:39:01.253Z,6.05
2023-02-11T05:40:01.217Z,6.01
2023-02-11T05:41:01.254Z,6.05
2023-02-11T05:42:01.173Z,6.11
2023-02-11T05:43:01.124Z,6.17
2023-02-11T05:44:01.100Z,6.08
2023-02-11T05:45:01.045Z,6.11
2023-02-11T05:46:01.078Z,6.14
2023-02-11T05:47:01.015Z,6.05
2023-02-11T05:48:00.951Z,6.09
2023-02-11T05:49:00.922Z,6.12
2023-02-11T05:50:00.906Z,6.17
2023-02-11T05:51:00.847Z,6.22
2023-02-11T05:52:00.825Z,6.17
2023-02-11T05:53:01.218Z,6.22
2023-02-11T05:54:00.773Z,6.16
2023-02-11T05:55:00.714Z,6.17
2023-02-11T05:56:00.682Z,6.19
2023-02-11T05:57:00.652Z,6.16
2023-02-11T05:58:00.673Z,6.2
2023-02-11T05:59:00.585Z,6.17
2023-02-11T06:00:00.545Z,6.2
2023-02-11T06:01:00.529Z,6.26
2023-02-11T06:02:00.486Z,6.26
2023-02-11T06:03:00.634Z,6.3
2023-02-11T06:04:00.757Z,6.26
2023-02-11T06:05:00.390Z,6.28
2023-02-11T06:06:00.364Z,6.22
2023-02-11T06:07:00.320Z,6.28
2023-02-11T06:08:00.288Z,6.24
2023-02-11T06:09:00.249Z,6.28
2023-02-11T06:09:59.997Z,6.3
2023-02-11T06:11:00.199Z,6.28
2023-02-11T06:12:00.156Z,6.26
2023-02-11T06:13:00.133Z,6.31
2023-02-11T06:14:00.168Z,6.26
2023-02-11T06:15:00.056Z,6.28
2023-02-11T06:16:00.222Z,6.26
2023-02-11T06:17:00.001Z,6.28
2023-02-11T06:17:59.967Z,6.24
2023-02-11T06:18:59.955Z,6.27
2023-02-11T06:19:59.883Z,6.19
2023-02-11T06:21:00.047Z,6.17
2023-02-11T06:21:59.865Z,6.26
2023-02-11T06:22:59.792Z,6.28
2023-02-11T06:23:59.744Z,6.2
2023-02-11T06:25:06.616Z,6.28
2023-02-11T06:25:59.681Z,6.28
2023-02-11T06:26:59.777Z,6.27
2023-02-11T06:28:00.132Z,6.28
2023-02-11T06:28:59.582Z,6.28
2023-02-11T06:29:59.596Z,6.3
2023-02-11T06:30:59.727Z,6.33
2023-02-11T06:31:59.864Z,6.33
2023-02-11T06:32:59.677Z,6.31
2023-02-11T06:33:59.418Z,6.35
2023-02-11T06:34:59.438Z,6.3
2023-02-11T06:35:59.408Z,6.27
2023-02-11T06:36:59.345Z,6.31
2023-02-11T06:37:59.302Z,6.33
2023-02-11T06:38:59.253Z,6.27
2023-02-11T06:39:59.228Z,6.3
2023-02-11T06:40:59.217Z,6.3
2023-02-11T06:41:59.154Z,6.27
2023-02-11T06:42:59.125Z,6.3
2023-02-11T06:43:59.093Z,6.27
2023-02-11T06:44:59.067Z,6.3
2023-02-11T06:45:59.049Z,6.27
2023-02-11T06:46:58.916Z,6.27
2023-02-11T06:47:58.963Z,6.31
2023-02-11T06:48:58.948Z,6.31
2023-02-11T06:49:58.889Z,6.31
2023-02-11T06:50:58.887Z,6.27
2023-02-11T06:51:58.581Z,6.36
2023-02-11T06:52:58.805Z,6.35
2023-02-11T06:53:58.763Z,6.31
2023-02-11T06:54:58.730Z,6.35
2023-02-11T06:55:58.688Z,6.35
2023-02-11T06:56:58.686Z,6.3
2023-02-11T06:57:58.622Z,6.28
2023-02-11T06:58:58.634Z,6.31
2023-02-11T06:59:58.579Z,6.31
2023-02-11T07:00:58.527Z,6.41
2023-02-11T07:01:58.775Z,6.39
2023-02-11T07:02:58.704Z,6.46
2023-02-11T07:03:58.508Z,6.45
2023-02-11T07:04:58.427Z,6.41
2023-02-11T07:05:58.351Z,6.46
2023-02-11T07:06:58.362Z,6.42
2023-02-11T07:07:58.287Z,6.44
2023-02-11T07:08:58.268Z,6.44
2023-02-11T07:09:58.261Z,6.42
2023-02-11T07:10:58.205Z,6.44
2023-02-11T07:11:58.157Z,6.45
2023-02-11T07:13:01.113Z,6.42
2023-02-11T07:13:58.096Z,6.48
2023-02-11T07:14:58.064Z,6.48
2023-02-11T07:15:58.492Z,6.45
2023-02-11T07:16:58.027Z,6.51
2023-02-11T07:17:58.017Z,6.44
2023-02-11T07:18:57.922Z,6.44
2023-02-11T07:19:57.904Z,6.46
2023-02-11T07:20:57.882Z,6.52
2023-02-11T07:21:57.828Z,6.45
2023-02-11T07:22:57.909Z,6.46
2023-02-11T07:23:57.757Z,6.48
2023-02-11T07:24:57.723Z,6.44
2023-02-11T07:25:57.795Z,6.49
2023-02-11T07:26:57.662Z,6.52
2023-02-11T07:27:57.804Z,6.51
2023-02-11T07:28:57.650Z,6.49
2023-02-11T07:29:57.592Z,6.48
2023-02-11T07:30:57.643Z,6.46
2023-02-11T07:31:57.770Z,6.45
2023-02-11T07:32:57.462Z,6.49
2023-02-11T07:33:57.478Z,6.52
2023-02-11T07:34:57.712Z,6.52
2023-02-11T07:35:57.775Z,6.6
2023-02-11T07:36:57.328Z,6.48
2023-02-11T07:37:57.305Z,6.48
2023-02-11T07:38:57.285Z,6.49
2023-02-11T07:39:57.236Z,6.51
2023-02-11T07:40:57.199Z,6.46
2023-02-11T07:41:57.176Z,6.49
2023-02-11T07:42:57.174Z,6.45
2023-02-11T07:43:57.109Z,6.49
2023-02-11T07:44:57.103Z,6.51
2023-02-11T07:45:57.312Z,6.51
2023-02-11T07:46:57.187Z,6.56
2023-02-11T07:47:56.982Z,6.48
2023-02-11T07:48:56.994Z,6.52
2023-02-11T07:50:00.151Z,6.51
2023-02-11T07:50:56.871Z,6.51
2023-02-11T07:51:56.848Z,6.52
2023-02-11T07:52:56.798Z,6.49
2023-02-11T07:53:56.806Z,6.51
2023-02-11T07:54:56.759Z,6.51
2023-02-11T07:55:57.035Z,6.48
2023-02-11T07:56:56.672Z,6.51
2023-02-11T07:57:56.634Z,6.57
2023-02-11T07:58:56.655Z,6.51
2023-02-11T07:59:56.565Z,6.51
2023-02-11T08:00:56.727Z,6.49
2023-02-11T08:01:56.769Z,6.6
2023-02-11T08:02:56.482Z,6.52
2023-02-11T08:03:56.632Z,6.57
2023-02-11T08:04:56.413Z,6.52
2023-02-11T08:05:56.539Z,6.57
2023-02-11T08:06:58.928Z,6.62
2023-02-11T08:07:56.310Z,6.64
2023-02-11T08:08:56.287Z,6.64
2023-02-11T08:09:56.250Z,6.7
2023-02-11T08:10:56.400Z,6.63
2023-02-11T08:11:56.200Z,6.6
2023-02-11T08:12:56.146Z,6.72
2023-02-11T08:13:56.176Z,6.67
2023-02-11T08:14:56.102Z,6.72
2023-02-11T08:15:56.541Z,6.66
2023-02-11T08:16:56.170Z,6.64
2023-02-11T08:17:55.978Z,6.66
2023-02-11T08:18:55.963Z,6.6
2023-02-11T08:19:55.922Z,6.69
2023-02-11T08:20:56.413Z,6.7
2023-02-11T08:21:55.867Z,6.67
2023-02-11T08:22:55.807Z,6.66
2023-02-11T08:23:55.794Z,6.66
2023-02-11T08:24:57.222Z,6.6
2023-02-11T08:25:55.710Z,6.64
2023-02-11T08:26:55.482Z,6.69
2023-02-11T08:27:55.690Z,6.67
2023-02-11T08:28:55.620Z,6.69
2023-02-11T08:29:55.578Z,6.69
2023-02-11T08:30:56.254Z,6.74
2023-02-11T08:31:55.745Z,6.72
2023-02-11T08:32:55.498Z,6.69
2023-02-11T08:33:55.468Z,6.62
2023-02-11T08:34:55.471Z,6.72
2023-02-11T08:35:55.464Z,6.81
2023-02-11T08:36:55.433Z,6.74
2023-02-11T08:37:55.342Z,6.7
2023-02-11T08:39:02.844Z,6.72
2023-02-11T08:39:55.245Z,6.78
2023-02-11T08:40:55.714Z,6.79
2023-02-11T08:41:55.206Z,6.78
2023-02-11T08:42:55.174Z,6.77
2023-02-11T08:43:55.122Z,6.79
2023-02-11T08:44:55.097Z,6.82
2023-02-11T08:45:56.051Z,6.78
2023-02-11T08:46:55.038Z,6.81
2023-02-11T08:47:54.985Z,6.75
2023-02-11T08:48:54.978Z,6.84
2023-02-11T08:49:54.938Z,6.79
2023-02-11T08:50:54.891Z,6.81
2023-02-11T08:51:54.934Z,6.79
2023-02-11T08:52:54.844Z,6.85
2023-02-11T08:53:54.829Z,6.82
2023-02-11T08:54:54.764Z,6.84
2023-02-11T08:55:55.537Z,6.92
2023-02-11T08:56:54.698Z,6.82
2023-02-11T08:57:54.664Z,6.88
2023-02-11T08:58:54.651Z,6.93
2023-02-11T08:59:54.597Z,6.89
2023-02-11T09:00:55.871Z,6.93
2023-02-11T09:01:54.723Z,6.96
2023-02-11T09:02:54.512Z,7.06
2023-02-11T09:03:54.501Z,7.03
2023-02-11T09:04:54.464Z,6.93
2023-02-11T09:05:54.475Z,6.97
2023-02-11T09:06:54.381Z,7
2023-02-11T09:07:54.346Z,7.03
2023-02-11T09:08:54.406Z,6.97
2023-02-11T09:09:54.301Z,7
2023-02-11T09:10:55.060Z,6.96
2023-02-11T09:11:54.211Z,7.05
2023-02-11T09:12:54.192Z,7.07
2023-02-11T09:13:57.000Z,7.03
2023-02-11T09:14:54.149Z,7.1
2023-02-11T09:15:54.230Z,7.21
2023-02-11T09:16:54.586Z,7.23
2023-02-11T09:17:54.018Z,7.23
2023-02-11T09:18:54.000Z,7.24
2023-02-11T09:19:53.949Z,7.23
2023-02-11T09:20:54.602Z,7.18
2023-02-11T09:21:53.913Z,7.28
2023-02-11T09:22:53.849Z,7.33
2023-02-11T09:23:53.827Z,7.35
2023-02-11T09:24:53.781Z,7.32
2023-02-11T09:25:54.700Z,7.29
2023-02-11T09:26:53.722Z,7.38
2023-02-11T09:27:53.728Z,7.36
2023-02-11T09:28:53.672Z,7.33
2023-02-11T09:29:53.629Z,7.38
2023-02-11T09:30:54.907Z,7.38
2023-02-11T09:31:54.145Z,7.4
2023-02-11T09:32:53.641Z,7.43
2023-02-11T09:33:53.556Z,7.39
2023-02-11T09:34:53.469Z,7.39
2023-02-11T09:35:53.443Z,7.35
2023-02-11T09:36:53.440Z,7.39
2023-02-11T09:37:53.395Z,7.45
2023-02-11T09:38:53.419Z,7.5
2023-02-11T09:39:53.321Z,7.54
2023-02-11T09:40:54.064Z,7.45
2023-02-11T09:41:53.266Z,7.57
2023-02-11T09:42:53.227Z,7.67
2023-02-11T09:43:53.192Z,7.6
2023-02-11T09:44:53.156Z,7.6
2023-02-11T09:45:53.338Z,7.58
2023-02-11T09:46:53.111Z,7.6
2023-02-11T09:47:53.080Z,7.63
2023-02-11T09:48:53.030Z,7.69
2023-02-11T09:49:53.009Z,7.66
2023-02-11T09:50:53.638Z,7.6
2023-02-11T09:51:52.938Z,7.63
2023-02-11T09:52:53.102Z,7.69
2023-02-11T09:53:52.867Z,7.73
2023-02-11T09:54:52.862Z,7.7
2023-02-11T09:55:52.816Z,7.66
2023-02-11T09:56:53.203Z,7.75
2023-02-11T09:57:52.789Z,7.69
2023-02-11T09:58:52.720Z,7.73
2023-02-11T09:59:52.687Z,7.76
2023-02-11T10:00:53.347Z,7.82
2023-02-11T10:01:52.942Z,7.82
2023-02-11T10:02:52.630Z,7.87
2023-02-11T10:03:52.594Z,7.77
2023-02-11T10:04:52.573Z,7.87
2023-02-11T10:05:52.505Z,7.83
2023-02-11T10:06:52.630Z,7.83
2023-02-11T10:07:52.436Z,7.83
2023-02-11T10:08:52.429Z,7.93
2023-02-11T10:09:52.387Z,7.97
2023-02-11T10:10:53.148Z,7.95
2023-02-11T10:11:52.301Z,7.98
2023-02-11T10:12:52.300Z,8.03
2023-02-11T10:13:52.304Z,8.05
2023-02-11T10:14:52.207Z,8.03
2023-02-11T10:15:52.353Z,8
2023-02-11T10:16:52.280Z,8.12
2023-02-11T10:17:52.127Z,8.09
2023-02-11T10:18:52.116Z,8.08
2023-02-11T10:19:52.058Z,8.09
2023-02-11T10:20:52.846Z,8.18
2023-02-11T10:21:52.007Z,8.12
2023-02-11T10:22:52.216Z,8.12
2023-02-11T10:23:51.932Z,8.12
2023-02-11T10:24:51.946Z,8.13
2023-02-11T10:25:51.882Z,8.09
2023-02-11T10:26:51.859Z,8.12
2023-02-11T10:27:51.814Z,8.2
2023-02-11T10:28:51.805Z,8.23
2023-02-11T10:29:51.778Z,8.26
2023-02-11T10:30:52.846Z,8.19
2023-02-11T10:31:51.838Z,8.26
2023-02-11T10:32:51.663Z,8.15
2023-02-11T10:33:51.746Z,8.15
2023-02-11T10:34:51.620Z,8.2
2023-02-11T10:35:51.565Z,8.16
2023-02-11T10:36:51.553Z,8.16
2023-02-11T10:37:51.519Z,8.3
2023-02-11T10:38:51.499Z,8.26
2023-02-11T10:39:51.454Z,8.28
2023-02-11T10:40:52.347Z,8.28
2023-02-11T10:41:51.376Z,8.28
2023-02-11T10:42:53.064Z,8.31
2023-02-11T10:43:51.330Z,8.36
2023-02-11T10:44:51.052Z,8.37
2023-02-11T10:45:51.286Z,8.33
2023-02-11T10:46:51.493Z,8.31
2023-02-11T10:47:51.193Z,8.33
2023-02-11T10:48:51.157Z,8.28
2023-02-11T10:49:51.134Z,8.23
2023-02-11T10:50:51.762Z,8.26
2023-02-11T10:51:51.066Z,8.24
2023-02-11T10:52:50.799Z,8.27
2023-02-11T10:53:51.005Z,8.23
2023-02-11T10:54:50.979Z,8.24
2023-02-11T10:55:50.966Z,8.2
2023-02-11T10:56:50.933Z,8.33
2023-02-11T10:57:50.912Z,8.31
2023-02-11T10:58:50.872Z,8.26
2023-02-11T10:59:50.822Z,8.33
2023-02-11T11:00:51.101Z,8.37
2023-02-11T11:01:50.995Z,8.37
2023-02-11T11:02:50.737Z,8.45
2023-02-11T11:03:50.700Z,8.46
2023-02-11T11:04:50.915Z,8.53
2023-02-11T11:05:50.658Z,8.44
2023-02-11T11:06:50.638Z,8.53
2023-02-11T11:07:50.565Z,8.56
2023-02-11T11:08:50.599Z,8.66
2023-02-11T11:09:50.507Z,8.58
2023-02-11T11:10:53.004Z,8.58
2023-02-11T11:11:50.459Z,8.6
2023-02-11T11:12:50.446Z,8.6
2023-02-11T11:13:50.414Z,8.56
2023-02-11T11:14:50.359Z,8.51
2023-02-11T11:15:50.535Z,8.58
2023-02-11T11:16:50.295Z,8.55
2023-02-11T11:17:50.302Z,8.53
2023-02-11T11:18:50.260Z,8.52
2023-02-11T11:19:50.220Z,8.55
2023-02-11T11:20:50.687Z,8.61
2023-02-11T11:21:50.161Z,8.56
2023-02-11T11:22:50.184Z,8.56
2023-02-11T11:23:50.099Z,8.56
2023-02-11T11:24:50.065Z,8.56
2023-02-11T11:25:50.019Z,8.42
2023-02-11T11:26:49.984Z,8.45
2023-02-11T11:27:49.963Z,8.44
2023-02-11T11:28:49.967Z,8.45
2023-02-11T11:29:49.904Z,8.46
2023-02-11T11:30:50.271Z,8.52
2023-02-11T11:31:50.008Z,8.44
2023-02-11T11:32:49.558Z,8.45
2023-02-11T11:33:49.983Z,8.48
2023-02-11T11:34:49.751Z,8.42
2023-02-11T11:35:49.710Z,8.55
2023-02-11T11:36:49.676Z,8.48
2023-02-11T11:37:49.646Z,8.41
2023-02-11T11:38:49.641Z,8.42
2023-02-11T11:39:49.595Z,8.33
2023-02-11T11:40:49.863Z,8.41
2023-02-11T11:41:49.523Z,8.48
2023-02-11T11:42:49.489Z,8.41
2023-02-11T11:43:49.458Z,8.37
2023-02-11T11:44:49.546Z,8.42
2023-02-11T11:45:49.407Z,8.51
2023-02-11T11:46:49.599Z,8.45
2023-02-11T11:47:49.338Z,8.52
2023-02-11T11:48:49.327Z,8.56
2023-02-11T11:49:49.304Z,8.6
2023-02-11T11:50:49.629Z,8.67
2023-02-11T11:51:49.215Z,8.69
2023-02-11T11:52:49.185Z,8.64
2023-02-11T11:53:49.161Z,8.64
2023-02-11T11:54:49.159Z,8.69
2023-02-11T11:55:49.105Z,8.71
2023-02-11T11:56:49.082Z,8.69
2023-02-11T11:57:49.066Z,8.67
2023-02-11T11:58:49.022Z,8.69
2023-02-11T11:59:48.977Z,8.69
2023-02-11T12:00:49.275Z,8.73
2023-02-11T12:01:48.875Z,8.74
2023-02-11T12:02:49.068Z,8.7
2023-02-11T12:03:48.868Z,8.79
2023-02-11T12:04:48.848Z,8.81
2023-02-11T12:05:48.804Z,8.71
2023-02-11T12:06:48.769Z,8.78
2023-02-11T12:07:48.741Z,8.7
2023-02-11T12:08:48.544Z,8.74
2023-02-11T12:09:48.681Z,8.78
2023-02-11T12:10:48.959Z,8.7
2023-02-11T12:11:48.606Z,8.79
2023-02-11T12:12:51.501Z,8.78
2023-02-11T12:13:48.577Z,8.67
2023-02-11T12:14:48.524Z,8.71
2023-02-11T12:15:48.496Z,8.7
2023-02-11T12:16:48.708Z,8.71
2023-02-11T12:17:48.426Z,8.66
2023-02-11T12:18:51.961Z,8.71
2023-02-11T12:19:48.352Z,8.76
2023-02-11T12:20:48.411Z,8.79
2023-02-11T12:21:48.075Z,8.79
2023-02-11T12:22:48.263Z,8.79
2023-02-11T12:23:48.288Z,8.73
2023-02-11T12:24:48.235Z,8.7
2023-02-11T12:25:47.925Z,8.74
2023-02-11T12:26:48.175Z,8.73
2023-02-11T12:27:48.113Z,8.71
2023-02-11T12:28:48.101Z,8.71
2023-02-11T12:29:48.058Z,8.82
2023-02-11T12:30:48.392Z,8.79
2023-02-11T12:31:48.141Z,8.82
2023-02-11T12:32:47.994Z,8.74
2023-02-11T12:33:47.942Z,8.74
2023-02-11T12:34:47.899Z,8.76
2023-02-11T12:35:47.882Z,8.85
2023-02-11T12:36:47.861Z,8.81
2023-02-11T12:37:47.831Z,8.7
2023-02-11T12:38:47.777Z,8.69
2023-02-11T12:39:47.763Z,8.7
2023-02-11T12:40:47.747Z,8.69
2023-02-11T12:41:47.687Z,8.69
2023-02-11T12:42:47.681Z,8.64
2023-02-11T12:43:47.617Z,8.64
2023-02-11T12:44:47.596Z,8.66
2023-02-11T12:45:47.469Z,8.69
2023-02-11T12:46:47.528Z,8.69
2023-02-11T12:47:47.530Z,8.69
2023-02-11T12:48:47.496Z,8.64
2023-02-11T12:49:47.448Z,8.64
2023-02-11T12:50:47.445Z,8.6
2023-02-11T12:51:47.384Z,8.69
2023-02-11T12:52:47.347Z,8.69
2023-02-11T12:53:47.344Z,8.71
2023-02-11T12:54:47.322Z,8.66
2023-02-11T12:55:47.254Z,8.69
2023-02-11T12:56:47.222Z,8.69
2023-02-11T12:57:47.212Z,8.61
2023-02-11T12:58:50.531Z,8.61
2023-02-11T12:59:47.145Z,8.66
2023-02-11T13:00:47.396Z,8.67
2023-02-11T13:01:47.268Z,8.66
2023-02-11T13:02:47.268Z,8.74
2023-02-11T13:03:48.221Z,8.76
2023-02-11T13:04:47.003Z,8.78
2023-02-11T13:05:46.952Z,8.79
2023-02-11T13:06:46.917Z,8.78
2023-02-11T13:07:46.897Z,8.88
2023-02-11T13:08:46.860Z,8.85
2023-02-11T13:09:46.877Z,8.87
2023-02-11T13:10:46.808Z,8.85
2023-02-11T13:11:46.762Z,8.84
2023-02-11T13:12:46.732Z,8.84
2023-02-11T13:13:46.465Z,8.85
2023-02-11T13:14:46.716Z,8.92
2023-02-11T13:15:46.644Z,8.85
2023-02-11T13:16:46.926Z,8.78
2023-02-11T13:17:46.580Z,8.91
2023-02-11T13:18:46.541Z,8.92
2023-02-11T13:19:46.283Z,8.87